createdAt,value
2023-05-10T00:02:05.308Z,101545.53
2023-05-10T00:04:32.150Z,101538.69
2023-05-10T00:06:59.078Z,101534.13
2023-05-10T00:09:25.939Z,101536.41
2023-05-10T00:11:52.718Z,101534.34
2023-05-10T00:14:19.789Z,101526.69
2023-05-10T00:16:46.611Z,101522.34
2023-05-10T00:19:13.519Z,101517.97
2023-05-10T00:21:40.402Z,101524.00
2023-05-10T00:24:07.269Z,101512.38
2023-05-10T00:26:34.096Z,101519.63
2023-05-10T00:29:01.550Z,101515.25
2023-05-10T00:31:28.392Z,101515.03
2023-05-10T00:33:55.779Z,101512.16
2023-05-10T00:36:22.591Z,101505.31
2023-05-10T00:38:49.330Z,101508.19
2023-05-10T00:41:16.722Z,101504.44
2023-05-10T00:43:44.539Z,101504.22
2023-05-10T00:46:11.992Z,101502.75
2023-05-10T00:48:39.193Z,101497.13
2023-05-10T00:51:06.140Z,101500.03
2023-05-10T00:53:33.904Z,101493.19
2023-05-10T00:56:00.856Z,101486.34
2023-05-10T00:58:29.374Z,101490.91
2023-05-10T01:00:59.822Z,101483.66
2023-05-10T01:03:40.828Z,101483.50
2023-05-10T01:06:16.905Z,101486.38
2023-05-10T01:08:43.873Z,101478.72
2023-05-10T01:11:10.888Z,101468.84
2023-05-10T01:13:40.488Z,101477.78
2023-05-10T01:16:08.092Z,101474.03
2023-05-10T01:18:41.620Z,101476.34
2023-05-10T01:24:23.587Z,101467.06
2023-05-10T01:27:14.530Z,101454.88
2023-05-10T01:30:21.892Z,101458.63
2023-05-10T01:32:57.763Z,101459.03
2023-05-10T01:35:35.707Z,101461.94
2023-05-10T01:38:38.344Z,101458.66
2023-05-10T01:41:07.962Z,101449.34
2023-05-10T01:43:58.473Z,101454.09
2023-05-10T01:46:34.153Z,101452.84
2023-05-10T01:49:03.479Z,101455.09
2023-05-10T01:51:40.755Z,101452.25
2023-05-10T01:54:11.846Z,101449.53
2023-05-10T01:56:41.240Z,101453.06
2023-05-10T01:59:16.449Z,101451.41
2023-05-10T02:01:45.123Z,101447.03
2023-05-10T02:04:14.659Z,101451.19
2023-05-10T02:06:43.672Z,101448.50
2023-05-10T02:09:12.959Z,101457.16
2023-05-10T02:11:40.707Z,101455.53
2023-05-10T02:14:09.930Z,101463.81
2023-05-10T02:16:39.144Z,101452.22
2023-05-10T02:19:07.355Z,101457.16
2023-05-10T02:21:35.479Z,101451.59
2023-05-10T02:24:05.265Z,101437.31
2023-05-10T02:26:36.290Z,101446.41
2023-05-10T02:29:04.859Z,101453.81
2023-05-10T02:31:34.025Z,101448.88
2023-05-10T02:34:02.589Z,101449.28
2023-05-10T02:36:30.767Z,101444.94
2023-05-10T02:38:59.570Z,101442.25
2023-05-10T02:41:27.484Z,101442.88
2023-05-10T02:44:00.308Z,101451.34
2023-05-10T02:46:27.200Z,101443.69
2023-05-10T02:48:54.088Z,101452.16
2023-05-10T02:51:25.700Z,101445.34
2023-05-10T02:53:56.215Z,101445.34
2023-05-10T02:56:52.244Z,101442.69
2023-05-10T02:59:19.390Z,101439.16
2023-05-10T03:01:46.276Z,101441.00
2023-05-10T03:04:13.316Z,101436.47
2023-05-10T03:06:40.486Z,101436.47
2023-05-10T03:09:08.845Z,101433.97
2023-05-10T03:11:50.567Z,101430.03
2023-05-10T03:14:35.737Z,101431.91
2023-05-10T03:17:10.095Z,101427.13
2023-05-10T03:19:54.130Z,101427.56
2023-05-10T03:22:38.276Z,101422.38
2023-05-10T03:25:09.379Z,101429.00
2023-05-10T03:27:37.771Z,101427.75
2023-05-10T03:30:07.294Z,101417.34
2023-05-10T03:32:35.805Z,101423.16
2023-05-10T03:35:10.542Z,101421.69
2023-05-10T03:37:37.841Z,101417.56
2023-05-10T03:40:06.417Z,101424.97
2023-05-10T03:42:35.436Z,101415.66
2023-05-10T03:45:02.299Z,101422.47
2023-05-10T03:47:30.779Z,101415.41
2023-05-10T03:49:58.461Z,101420.56
2023-05-10T03:52:25.290Z,101416.44
2023-05-10T03:54:52.157Z,101417.44
2023-05-10T03:57:18.958Z,101422.66
2023-05-10T03:59:46.357Z,101424.09
2023-05-10T04:02:13.281Z,101422.06
2023-05-10T04:04:40.132Z,101418.94
2023-05-10T04:07:06.961Z,101422.84
2023-05-10T04:09:34.572Z,101419.34
2023-05-10T04:12:03.402Z,101423.50
2023-05-10T04:14:30.353Z,101421.63
2023-05-10T04:16:57.078Z,101424.72
2023-05-10T04:19:24.390Z,101417.22
2023-05-10T04:21:51.227Z,101428.41
2023-05-10T04:24:18.029Z,101420.94
2023-05-10T04:26:44.840Z,101413.47
2023-05-10T04:29:11.563Z,101416.34
2023-05-10T04:31:38.402Z,101417.88
2023-05-10T04:34:05.360Z,101415.19
2023-05-10T04:36:33.579Z,101416.88
2023-05-10T04:39:00.416Z,101417.66
2023-05-10T04:41:27.296Z,101411.84
2023-05-10T04:43:54.033Z,101418.91
2023-05-10T04:46:20.827Z,101406.66
2023-05-10T04:48:47.655Z,101412.50
2023-05-10T04:51:14.608Z,101420.38
2023-05-10T04:53:43.014Z,101418.50
2023-05-10T04:56:11.483Z,101416.44
2023-05-10T04:58:38.354Z,101403.41
2023-05-10T05:01:10.442Z,101407.13
2023-05-10T05:03:38.172Z,101404.84
2023-05-10T05:06:05.184Z,101409.84
2023-05-10T05:08:32.270Z,101410.72
2023-05-10T05:11:00.414Z,101403.25
2023-05-10T05:13:27.285Z,101401.78
2023-05-10T05:15:54.614Z,101397.84
2023-05-10T05:18:21.546Z,101402.63
2023-05-10T05:20:48.249Z,101409.88
2023-05-10T05:23:16.361Z,101393.75
2023-05-10T05:25:43.269Z,101401.19
2023-05-10T05:28:10.016Z,101403.44
2023-05-10T05:30:36.853Z,101403.44
2023-05-10T05:33:04.056Z,101415.00
2023-05-10T05:35:30.959Z,101413.75
2023-05-10T05:37:57.712Z,101410.47
2023-05-10T05:40:24.507Z,101414.38
2023-05-10T05:42:51.299Z,101415.66
2023-05-10T05:45:18.357Z,101414.78
2023-05-10T05:47:45.596Z,101422.50
2023-05-10T05:50:12.521Z,101428.69
2023-05-10T05:52:39.383Z,101429.72
2023-05-10T05:55:06.412Z,101429.72
2023-05-10T05:57:33.120Z,101424.53
2023-05-10T06:00:00.581Z,101424.78
2023-05-10T06:02:27.555Z,101418.75
2023-05-10T06:04:54.343Z,101429.34
2023-05-10T06:07:21.307Z,101435.53
2023-05-10T06:09:48.093Z,101430.34
2023-05-10T06:12:14.880Z,101426.88
2023-05-10T06:14:41.763Z,101428.13
2023-05-10T06:17:08.544Z,101426.09
2023-05-10T06:19:35.302Z,101427.34
2023-05-10T06:22:02.663Z,101431.91
2023-05-10T06:24:29.597Z,101417.22
2023-05-10T06:26:56.355Z,101419.72
2023-05-10T06:29:23.147Z,101411.84
2023-05-10T06:31:50.053Z,101399.84
2023-05-10T06:34:16.811Z,101402.91
2023-05-10T06:36:44.024Z,101398.97
2023-05-10T06:39:12.680Z,101387.38
2023-05-10T06:41:39.460Z,101388.06
2023-05-10T06:44:06.318Z,101392.59
2023-05-10T06:46:33.168Z,101402.31
2023-05-10T06:48:59.963Z,101406.25
2023-05-10T06:51:27.150Z,101416.63
2023-05-10T06:53:54.105Z,101420.72
2023-05-10T06:56:22.464Z,101423.84
2023-05-10T06:58:49.547Z,101432.78
2023-05-10T07:01:16.534Z,101430.09
2023-05-10T07:03:43.465Z,101443.91
2023-05-10T07:06:21.577Z,101445.56
2023-05-10T07:08:56.890Z,101440.00
2023-05-10T07:11:23.668Z,101444.78
2023-05-10T07:13:50.388Z,101437.13
2023-05-10T07:16:17.447Z,101432.75
2023-05-10T07:18:44.284Z,101435.22
2023-05-10T07:21:11.415Z,101439.78
2023-05-10T07:23:38.182Z,101445.16
2023-05-10T07:26:05.117Z,101443.31
2023-05-10T07:28:31.896Z,101439.56
2023-05-10T07:30:58.703Z,101433.59
2023-05-10T07:33:25.459Z,101437.91
2023-05-10T07:35:52.673Z,101438.09
2023-05-10T07:38:19.485Z,101438.88
2023-05-10T07:40:46.223Z,101434.47
2023-05-10T07:43:12.998Z,101440.69
2023-05-10T07:45:39.827Z,101447.50
2023-05-10T07:48:06.641Z,101431.34
2023-05-10T07:50:33.452Z,101443.38
2023-05-10T07:53:00.257Z,101434.03
2023-05-10T07:55:27.350Z,101436.94
2023-05-10T07:57:54.121Z,101427.28
2023-05-10T08:00:21.682Z,101426.56
2023-05-10T08:02:49.144Z,101433.81
2023-05-10T08:05:16.663Z,101432.00
2023-05-10T08:07:43.614Z,101427.13
2023-05-10T08:10:11.972Z,101424.75
2023-05-10T08:12:39.306Z,101428.16
2023-05-10T08:15:07.685Z,101426.63
2023-05-10T08:17:34.564Z,101425.28
2023-05-10T08:20:01.434Z,101428.09
2023-05-10T08:22:28.477Z,101430.72
2023-05-10T08:24:55.226Z,101432.59
2023-05-10T08:27:22.237Z,101425.75
2023-05-10T08:29:50.496Z,101423.69
2023-05-10T08:32:18.082Z,101424.75
2023-05-10T08:34:44.875Z,101430.84
2023-05-10T08:37:14.328Z,101421.31
2023-05-10T08:39:41.454Z,101425.59
2023-05-10T08:42:10.320Z,101433.53
2023-05-10T08:44:38.162Z,101428.91
2023-05-10T08:47:11.378Z,101437.13
2023-05-10T08:49:38.634Z,101429.63
2023-05-10T08:52:08.082Z,101433.75
2023-05-10T08:54:35.592Z,101436.03
2023-05-10T08:57:02.692Z,101441.72
2023-05-10T08:59:29.898Z,101442.69
2023-05-10T09:02:00.546Z,101436.81
2023-05-10T09:04:27.553Z,101437.16
2023-05-10T09:06:55.188Z,101434.25
2023-05-10T09:09:22.795Z,101442.09
2023-05-10T09:11:50.152Z,101441.25
2023-05-10T09:14:18.337Z,101450.66
2023-05-10T09:16:45.215Z,101448.56
2023-05-10T09:19:12.179Z,101448.94
2023-05-10T09:21:39.379Z,101448.34
2023-05-10T09:24:09.912Z,101450.69
2023-05-10T09:26:46.373Z,101459.19
2023-05-10T09:29:15.176Z,101455.91
2023-05-10T09:31:53.131Z,101462.41
2023-05-10T09:34:22.009Z,101463.94
2023-05-10T09:37:07.244Z,101450.16
2023-05-10T09:39:40.427Z,101453.44
2023-05-10T09:42:10.021Z,101451.59
2023-05-10T09:44:37.945Z,101458.44
2023-05-10T09:47:05.358Z,101454.06
2023-05-10T09:49:32.272Z,101452.53
2023-05-10T09:52:06.384Z,101457.38
2023-05-10T09:54:34.336Z,101450.09
2023-05-10T09:57:01.897Z,101448.97
2023-05-10T09:59:29.816Z,101461.34
2023-05-10T10:01:58.533Z,101461.66
2023-05-10T10:04:25.639Z,101451.59
2023-05-10T10:07:05.726Z,101459.47
2023-05-10T10:09:33.672Z,101464.25
2023-05-10T10:12:02.012Z,101458.44
2023-05-10T10:14:30.126Z,101467.72
2023-05-10T10:17:07.214Z,101464.06
2023-05-10T10:19:36.762Z,101456.66
2023-05-10T10:22:04.208Z,101469.25
2023-05-10T10:24:31.197Z,101471.72
2023-05-10T10:27:06.242Z,101474.94
2023-05-10T10:29:45.827Z,101469.81
2023-05-10T10:32:30.534Z,101468.66
2023-05-10T10:34:58.052Z,101471.94
2023-05-10T10:37:42.260Z,101460.00
2023-05-10T10:40:28.245Z,101462.06
2023-05-10T10:42:56.237Z,101461.31
2023-05-10T10:45:25.860Z,101467.97
2023-05-10T10:48:21.542Z,101465.13
2023-05-10T10:50:48.327Z,101453.13
2023-05-10T10:53:15.237Z,101467.81
2023-05-10T10:55:49.525Z,101467.56
2023-05-10T10:58:34.679Z,101456.66
2023-05-10T11:01:16.478Z,101454.84
2023-05-10T11:04:16.332Z,101465.91
2023-05-10T11:06:43.639Z,101460.56
2023-05-10T11:09:12.554Z,101461.22
2023-05-10T11:11:59.360Z,101450.94
2023-05-10T11:14:26.441Z,101457.63
2023-05-10T11:16:53.488Z,101465.06
2023-05-10T11:19:20.617Z,101456.25
2023-05-10T11:21:52.914Z,101463.66
2023-05-10T11:24:21.622Z,101454.13
2023-05-10T11:26:51.040Z,101452.69
2023-05-10T11:29:17.893Z,101459.59
2023-05-10T11:31:46.463Z,101460.91
2023-05-10T11:34:23.937Z,101452.69
2023-05-10T11:36:54.906Z,101455.59
2023-05-10T11:39:22.576Z,101448.19
2023-05-10T11:41:50.531Z,101461.97
2023-05-10T11:44:17.465Z,101455.25
2023-05-10T11:46:44.327Z,101447.00
2023-05-10T11:49:11.831Z,101451.16
2023-05-10T11:51:38.541Z,101450.72
2023-05-10T11:54:10.561Z,101453.16
2023-05-10T11:56:38.792Z,101457.84
2023-05-10T11:59:05.611Z,101451.38
2023-05-10T12:01:32.778Z,101446.19
2023-05-10T12:04:01.421Z,101457.84
2023-05-10T12:06:30.612Z,101451.03
2023-05-10T12:08:57.942Z,101453.13
2023-05-10T12:11:29.501Z,101453.16
2023-05-10T12:13:57.546Z,101455.56
2023-05-10T12:16:29.153Z,101451.81
2023-05-10T12:19:00.953Z,101449.84
2023-05-10T12:21:29.398Z,101455.16
2023-05-10T12:24:01.338Z,101449.97
2023-05-10T12:26:29.155Z,101447.41
2023-05-10T12:29:12.225Z,101454.53
2023-05-10T12:31:59.726Z,101456.94
2023-05-10T12:34:36.037Z,101458.97
2023-05-10T12:37:04.461Z,101454.78
2023-05-10T12:39:45.790Z,101449.59
2023-05-10T12:42:12.948Z,101451.81
2023-05-10T12:44:40.878Z,101440.28
2023-05-10T12:47:07.871Z,101442.78
2023-05-10T12:49:35.133Z,101444.22
2023-05-10T12:52:02.264Z,101439.78
2023-05-10T12:54:29.056Z,101442.72
2023-05-10T12:56:55.879Z,101443.19
2023-05-10T12:59:23.881Z,101432.03
2023-05-10T13:01:50.786Z,101434.25
2023-05-10T13:04:17.539Z,101447.16
2023-05-10T13:06:44.556Z,101435.84
2023-05-10T13:09:11.435Z,101441.03
2023-05-10T13:11:38.509Z,101437.06
2023-05-10T13:14:05.385Z,101437.34
2023-05-10T13:16:32.693Z,101437.69
2023-05-10T13:18:59.780Z,101438.47
2023-05-10T13:21:26.825Z,101439.97
2023-05-10T13:23:54.420Z,101439.75
2023-05-10T13:26:21.385Z,101443.50
2023-05-10T13:28:49.898Z,101443.50
2023-05-10T13:31:16.844Z,101437.56
2023-05-10T13:33:43.656Z,101436.97
2023-05-10T13:36:10.448Z,101435.94
2023-05-10T13:38:37.484Z,101431.53
2023-05-10T13:41:04.465Z,101427.25
2023-05-10T13:43:31.248Z,101433.91
2023-05-10T13:45:58.241Z,101431.22
2023-05-10T13:48:24.988Z,101440.06
2023-05-10T13:50:51.748Z,101433.13
2023-05-10T13:53:18.514Z,101437.09
2023-05-10T13:55:45.383Z,101430.41
2023-05-10T13:58:12.454Z,101435.81
2023-05-10T14:00:39.339Z,101428.69
2023-05-10T14:03:07.917Z,101431.47
2023-05-10T14:05:34.690Z,101427.00
2023-05-10T14:08:01.444Z,101438.03
2023-05-10T14:10:28.248Z,101433.53
2023-05-10T14:12:55.117Z,101434.56
2023-05-10T14:15:22.087Z,101433.94
2023-05-10T14:17:49.034Z,101423.84
2023-05-10T14:20:16.096Z,101431.28
2023-05-10T14:22:42.824Z,101421.59
2023-05-10T14:25:10.258Z,101425.19
2023-05-10T14:27:37.538Z,101424.00
2023-05-10T14:30:04.656Z,101425.00
2023-05-10T14:32:33.053Z,101414.69
2023-05-10T14:35:00.600Z,101406.81
2023-05-10T14:37:27.841Z,101408.19
2023-05-10T14:39:55.053Z,101405.50
2023-05-10T14:42:22.291Z,101399.75
2023-05-10T14:44:49.023Z,101394.13
2023-05-10T14:47:15.802Z,101399.06
2023-05-10T14:49:42.504Z,101400.81
2023-05-10T14:52:09.262Z,101403.00
2023-05-10T14:54:36.160Z,101400.59
2023-05-10T14:57:03.395Z,101390.19
2023-05-10T14:59:30.182Z,101397.22
2023-05-10T15:01:57.322Z,101401.19
2023-05-10T15:04:25.959Z,101386.03
2023-05-10T15:07:00.185Z,101397.19
2023-05-10T15:09:28.560Z,101398.59
2023-05-10T15:11:56.248Z,101400.78
2023-05-10T15:14:23.841Z,101400.78
2023-05-10T15:16:50.808Z,101400.56
2023-05-10T15:19:17.721Z,101402.78
2023-05-10T15:21:45.632Z,101400.25
2023-05-10T15:24:12.394Z,101401.31
2023-05-10T15:26:39.118Z,101394.59
2023-05-10T15:29:05.888Z,101395.88
2023-05-10T15:31:32.798Z,101395.66
2023-05-10T15:34:02.435Z,101398.25
2023-05-10T15:36:29.157Z,101394.94
2023-05-10T15:38:55.929Z,101401.06
2023-05-10T15:41:22.711Z,101398.94
2023-05-10T15:43:49.470Z,101408.47
2023-05-10T15:46:16.265Z,101387.63
2023-05-10T15:48:43.543Z,101402.72
2023-05-10T15:51:10.326Z,101387.63
2023-05-10T15:53:37.127Z,101398.47
2023-05-10T15:56:04.135Z,101392.13
2023-05-10T15:58:31.059Z,101396.50
2023-05-10T16:00:57.986Z,101396.56
2023-05-10T16:03:24.961Z,101398.00
2023-05-10T16:05:52.054Z,101390.56
2023-05-10T16:08:18.738Z,101395.56
2023-05-10T16:10:45.718Z,101389.78
2023-05-10T16:13:12.563Z,101392.25
2023-05-10T16:15:39.269Z,101394.13
2023-05-10T16:18:06.220Z,101387.41
2023-05-10T16:20:33.099Z,101395.50
2023-05-10T16:23:05.397Z,101394.09
2023-05-10T16:25:33.438Z,101401.72
2023-05-10T16:28:00.880Z,101399.69
2023-05-10T16:30:30.152Z,101399.88
2023-05-10T16:32:58.071Z,101395.47
2023-05-10T16:35:24.926Z,101388.53
2023-05-10T16:37:54.559Z,101388.25
2023-05-10T16:40:21.742Z,101389.31
2023-05-10T16:42:48.479Z,101390.81
2023-05-10T16:45:16.456Z,101397.28
2023-05-10T16:47:43.488Z,101397.41
2023-05-10T16:50:10.555Z,101402.44
2023-05-10T16:52:37.497Z,101398.09
2023-05-10T16:55:05.210Z,101404.81
2023-05-10T16:57:33.032Z,101409.03
2023-05-10T16:59:59.916Z,101409.22
2023-05-10T17:02:26.915Z,101393.97
2023-05-10T17:04:56.088Z,101401.88
2023-05-10T17:07:25.405Z,101397.06
2023-05-10T17:09:53.103Z,101397.41
2023-05-10T17:12:19.920Z,101399.88
2023-05-10T17:14:47.153Z,101400.47
2023-05-10T17:17:13.894Z,101396.66
2023-05-10T17:19:40.574Z,101405.47
2023-05-10T17:22:07.435Z,101406.53
2023-05-10T17:24:34.138Z,101404.59
2023-05-10T17:27:00.997Z,101405.22
2023-05-10T17:29:28.674Z,101410.66
2023-05-10T17:31:55.609Z,101403.41
2023-05-10T17:34:22.431Z,101408.34
2023-05-10T17:36:49.286Z,101404.75
2023-05-10T17:39:16.257Z,101407.31
2023-05-10T17:41:43.076Z,101406.28
2023-05-10T17:44:09.886Z,101406.59
2023-05-10T17:46:36.860Z,101412.56
2023-05-10T17:49:03.601Z,101414.59
2023-05-10T17:51:30.426Z,101414.31
2023-05-10T17:53:57.198Z,101414.19
2023-05-10T17:56:24.486Z,101418.56
2023-05-10T17:58:51.265Z,101418.75
2023-05-10T18:01:18.132Z,101415.47
2023-05-10T18:03:44.845Z,101413.72
2023-05-10T18:06:11.685Z,101419.88
2023-05-10T18:08:38.507Z,101430.16
2023-05-10T18:11:05.399Z,101424.75
2023-05-10T18:13:32.128Z,101425.97
2023-05-10T18:15:59.454Z,101429.28
2023-05-10T18:18:26.288Z,101432.09
2023-05-10T18:20:58.023Z,101443.66
2023-05-10T18:23:25.018Z,101441.75
2023-05-10T18:25:52.116Z,101448.88
2023-05-10T18:28:18.886Z,101452.16
2023-05-10T18:30:45.768Z,101456.81
2023-05-10T18:33:12.684Z,101465.53
2023-05-10T18:35:43.812Z,101456.78
2023-05-10T18:38:11.048Z,101459.22
2023-05-10T18:40:37.787Z,101462.59
2023-05-10T18:43:04.726Z,101457.16
2023-05-10T18:45:31.656Z,101471.03
2023-05-10T18:47:58.373Z,101467.19
2023-05-10T18:50:25.219Z,101474.06
2023-05-10T18:52:52.286Z,101469.72
2023-05-10T18:55:19.877Z,101469.38
2023-05-10T18:57:47.054Z,101473.06
2023-05-10T19:00:16.653Z,101474.75
2023-05-10T19:02:43.451Z,101473.03
2023-05-10T19:05:10.508Z,101479.09
2023-05-10T19:07:37.284Z,101477.13
2023-05-10T19:10:04.300Z,101480.28
2023-05-10T19:12:31.144Z,101483.41
2023-05-10T19:14:59.245Z,101484.63
2023-05-10T19:17:26.455Z,101492.50
2023-05-10T19:19:54.386Z,101491.47
2023-05-10T19:22:36.059Z,101491.28
2023-05-10T19:25:09.198Z,101502.69
2023-05-10T19:27:36.673Z,101502.69
2023-05-10T19:30:03.648Z,101503.97
2023-05-10T19:32:30.406Z,101496.66
2023-05-10T19:34:57.156Z,101508.97
2023-05-10T19:37:25.683Z,101503.97
2023-05-10T19:39:52.382Z,101512.06
2023-05-10T19:42:20.648Z,101507.88
2023-05-10T19:44:48.067Z,101513.72
2023-05-10T19:47:15.141Z,101516.63
2023-05-10T19:49:42.146Z,101520.56
2023-05-10T19:52:10.591Z,101523.28
2023-05-10T19:54:38.184Z,101518.31
2023-05-10T19:57:04.938Z,101525.75
2023-05-10T19:59:31.627Z,101527.66
2023-05-10T20:01:58.352Z,101530.56
2023-05-10T20:04:25.167Z,101535.53
2023-05-10T20:06:51.847Z,101531.38
2023-05-10T20:09:18.602Z,101525.78
2023-05-10T20:11:45.379Z,101523.72
2023-05-10T20:14:12.165Z,101530.13
2023-05-10T20:16:38.993Z,101527.22
2023-05-10T20:19:06.147Z,101528.25
2023-05-10T20:21:33.572Z,101523.69
2023-05-10T20:24:00.321Z,101527.63
2023-05-10T20:26:27.123Z,101529.69
2023-05-10T20:28:53.980Z,101535.47
2023-05-10T20:31:20.801Z,101539.44
2023-05-10T20:33:47.554Z,101542.72
2023-05-10T20:36:15.000Z,101543.94
2023-05-10T20:38:41.878Z,101541.91
2023-05-10T20:41:08.662Z,101546.03
2023-05-10T20:43:35.772Z,101547.06
2023-05-10T20:46:05.434Z,101556.81
2023-05-10T20:48:33.115Z,101551.44
2023-05-10T20:51:02.514Z,101554.56
2023-05-10T20:53:29.576Z,101534.50
2023-05-10T20:55:56.429Z,101545.69
2023-05-10T20:58:23.151Z,101548.19
2023-05-10T21:00:49.896Z,101543.38
2023-05-10T21:03:16.743Z,101550.44
2023-05-10T21:05:43.520Z,101556.44
2023-05-10T21:08:10.453Z,101550.88
2023-05-10T21:10:37.153Z,101545.47
2023-05-10T21:13:03.989Z,101552.53
2023-05-10T21:15:30.762Z,101549.00
2023-05-10T21:17:58.496Z,101550.44
2023-05-10T21:20:25.377Z,101543.00
2023-05-10T21:22:52.191Z,101554.00
2023-05-10T21:25:19.144Z,101543.03
2023-05-10T21:27:46.039Z,101551.31
2023-05-10T21:30:12.952Z,101556.69
2023-05-10T21:32:39.893Z,101549.44
2023-05-10T21:35:07.302Z,101551.09
2023-05-10T21:37:34.169Z,101539.28
2023-05-10T21:40:01.196Z,101537.63
2023-05-10T21:42:28.008Z,101547.38
2023-05-10T21:44:54.862Z,101552.78
2023-05-10T21:47:21.808Z,101543.84
2023-05-10T21:49:48.546Z,101547.16
2023-05-10T21:52:15.303Z,101536.41
2023-05-10T21:54:42.094Z,101537.22
2023-05-10T21:57:08.835Z,101537.84
2023-05-10T21:59:35.666Z,101540.53
2023-05-10T22:02:02.508Z,101538.47
2023-05-10T22:04:29.268Z,101534.13
2023-05-10T22:06:56.061Z,101537.22
2023-05-10T22:09:24.353Z,101537.22
2023-05-10T22:11:51.339Z,101540.53
2023-05-10T22:14:18.141Z,101534.31
2023-05-10T22:16:44.889Z,101533.06
2023-05-10T22:19:11.730Z,101544.47
2023-05-10T22:21:38.464Z,101534.53
2023-05-10T22:24:05.372Z,101541.56
2023-05-10T22:26:32.226Z,101538.66
2023-05-10T22:28:58.946Z,101545.31
2023-05-10T22:31:26.701Z,101544.47
2023-05-10T22:33:53.535Z,101547.38
2023-05-10T22:36:20.415Z,101541.75
2023-05-10T22:38:47.277Z,101544.47
2023-05-10T22:41:14.005Z,101535.38
2023-05-10T22:43:40.794Z,101538.06
2023-05-10T22:46:07.609Z,101540.56
2023-05-10T22:48:35.673Z,101546.16
2023-05-10T22:51:02.418Z,101533.06
2023-05-10T22:53:29.192Z,101539.69
2023-05-10T22:55:56.242Z,101540.56
2023-05-10T22:58:23.108Z,101532.47
2023-05-10T23:00:49.958Z,101536.63
2023-05-10T23:03:18.099Z,101528.75
2023-05-10T23:05:44.871Z,101530.59
2023-05-10T23:08:11.715Z,101525.00
2023-05-10T23:10:39.098Z,101532.25
2023-05-10T23:13:06.348Z,101521.06
2023-05-10T23:15:33.208Z,101526.00
2023-05-10T23:18:03.064Z,101522.50
2023-05-10T23:20:29.931Z,101516.91
2023-05-10T23:22:56.772Z,101519.81
2023-05-10T23:25:23.530Z,101511.72
2023-05-10T23:27:50.256Z,101505.09
2023-05-10T23:30:17.297Z,101511.06
2023-05-10T23:32:44.258Z,101514.63
2023-05-10T23:35:11.245Z,101510.91
2023-05-10T23:37:38.098Z,101500.13
2023-05-10T23:40:05.508Z,101494.72
2023-05-10T23:42:32.702Z,101493.06
2023-05-10T23:44:59.546Z,101487.06
2023-05-10T23:47:26.654Z,101486.69
2023-05-10T23:49:53.533Z,101485.44
2023-05-10T23:52:24.911Z,101480.88
2023-05-10T23:54:52.185Z,101480.28
2023-05-10T23:57:19.385Z,101474.03
2023-05-10T23:59:46.590Z,101459.97
